RJTA(METAR)
08/24 11:00
METAR RJTA 240200Z 20006KT 160V230 9999 BKN180 BKN230 32/22 Q1008
RMK 6AC180 A2977=
戻る
トップページへ戻る
IMOC Co,.Ltd.